Time;durP1;ratioP1;P1;durP2;ratioP2;P2;SDS_P1;SDS_P2;PMS_P1;PMS_P2;Temp;Humidity;BMP_temperature;BMP_pressure;BME280_temperature;BME280_humidity;BME280_pressure;Samples;Min_cycle;Max_cycle;Signal;HPM_P1;HPM_P2
2022/07/27 00:01:33;;;;;;;0.32;0.20;;;20.50;85.10;;;;;;5011867;28;20018;-90
2022/07/27 00:04:02;;;;;;;0.77;0.40;;;20.50;85.20;;;;;;4989125;28;20087;-90
2022/07/27 00:06:33;;;;;;;1.38;0.50;;;20.50;85.20;;;;;;4989571;28;20040;-90
2022/07/27 00:09:04;;;;;;;1.55;0.40;;;20.60;85.80;;;;;;4995182;28;20038;-90
2022/07/27 00:11:40;;;;;;;0.63;0.30;;;20.50;86.30;;;;;;4991941;28;20088;-90
2022/07/27 00:14:18;;;;;;;1.00;0.50;;;20.40;85.80;;;;;;4983430;28;20045;-89
2022/07/27 00:16:54;;;;;;;1.67;0.40;;;20.30;86.10;;;;;;5005996;28;20042;-89
2022/07/27 00:19:29;;;;;;;1.00;0.60;;;20.30;86.50;;;;;;5007138;28;20117;-90
2022/07/27 00:21:54;;;;;;;0.50;0.30;;;20.30;86.70;;;;;;4995402;28;20121;-90
2022/07/27 00:24:20;;;;;;;0.85;0.40;;;20.30;86.70;;;;;;4994875;28;20061;-90
2022/07/27 00:26:46;;;;;;;0.60;0.30;;;20.30;87.00;;;;;;5009709;28;20049;-90
2022/07/27 00:29:11;;;;;;;2.53;0.52;;;20.30;87.00;;;;;;4991436;28;20023;-90
2022/07/27 00:31:43;;;;;;;1.38;0.52;;;20.10;87.40;;;;;;4985091;28;20048;-91
2022/07/27 00:34:19;;;;;;;1.23;0.43;;;20.10;88.20;;;;;;4991865;28;20513;-90
2022/07/27 00:36:47;;;;;;;1.33;0.50;;;20.10;88.10;;;;;;4993685;28;20490;-91
2022/07/27 00:39:16;;;;;;;1.40;0.55;;;20.10;88.20;;;;;;4993089;28;20024;-89
2022/07/27 00:41:45;;;;;;;1.40;0.57;;;20.20;88.60;;;;;;4992468;28;20030;-89
2022/07/27 00:44:11;;;;;;;1.38;0.43;;;20.20;88.70;;;;;;4986648;28;20038;-90
2022/07/27 00:46:39;;;;;;;1.20;0.50;;;20.30;88.30;;;;;;4992798;28;20033;-90
2022/07/27 00:49:05;;;;;;;1.73;0.57;;;20.30;88.50;;;;;;4985494;28;20045;-89
2022/07/27 00:51:31;;;;;;;0.98;0.50;;;20.30;88.60;;;;;;4993552;28;20026;-90
2022/07/27 00:54:00;;;;;;;2.88;0.75;;;20.30;88.80;;;;;;4989073;28;20052;-90
2022/07/27 00:56:35;;;;;;;1.40;0.45;;;20.40;88.80;;;;;;5008281;28;20051;-89
2022/07/27 00:59:11;;;;;;;1.85;0.57;;;20.50;88.50;;;;;;4990628;28;20040;-90
2022/07/27 01:01:49;;;;;;;1.40;0.60;;;20.40;88.30;;;;;;4994379;28;20033;-90
2022/07/27 01:04:21;;;;;;;1.75;0.70;;;20.30;88.40;;;;;;5006577;28;20037;-89
2022/07/27 01:06:53;;;;;;;1.83;0.70;;;20.30;88.60;;;;;;5008331;28;20562;-89
2022/07/27 01:12:19;;;;;;;1.15;0.60;;;20.20;88.80;;;;;;5010613;28;20073;-90
2022/07/27 01:14:51;;;;;;;2.03;0.60;;;20.20;89.10;;;;;;4996297;28;20030;-91
2022/07/27 01:17:29;;;;;;;1.90;0.85;;;20.10;89.50;;;;;;4996306;28;20045;-89
2022/07/27 01:20:04;;;;;;;1.17;0.40;;;20.00;89.70;;;;;;4997727;28;20030;-90
2022/07/27 01:22:54;;;;;;;2.17;0.50;;;20.00;89.80;;;;;;5012787;28;20529;-89
2022/07/27 01:25:20;;;;;;;1.38;0.57;;;20.10;90.00;;;;;;4994838;28;20096;-89
2022/07/27 01:27:49;;;;;;;4.47;0.85;;;20.00;90.00;;;;;;4999497;28;20037;-90
2022/07/27 01:30:26;;;;;;;1.40;0.65;;;20.00;90.20;;;;;;5011824;28;20022;-89
2022/07/27 01:33:04;;;;;;;3.35;0.70;;;20.00;90.00;;;;;;4998437;28;20022;-91
2022/07/27 01:35:39;;;;;;;1.58;0.60;;;19.80;90.10;;;;;;4998313;28;20041;-89
2022/07/27 01:38:11;;;;;;;1.40;0.63;;;19.80;90.30;;;;;;4994228;28;20491;-90
2022/07/27 01:40:44;;;;;;;1.48;0.60;;;19.80;90.30;;;;;;5016343;28;20483;-89
2022/07/27 01:43:27;;;;;;;2.45;0.75;;;19.80;90.30;;;;;;5013178;28;20041;-90
2022/07/27 01:45:56;;;;;;;2.15;0.52;;;19.70;90.30;;;;;;5004156;28;20041;-90
2022/07/27 01:48:22;;;;;;;0.95;0.50;;;19.60;90.50;;;;;;4995172;28;20819;-90
2022/07/27 01:51:23;;;;;;;1.30;0.47;;;19.60;90.70;;;;;;4991804;28;20038;-90
2022/07/27 01:54:09;;;;;;;2.00;0.80;;;19.70;90.70;;;;;;4977781;28;20037;-89
2022/07/27 01:57:01;;;;;;;1.67;0.70;;;19.60;90.80;;;;;;4994384;28;20084;-89
2022/07/27 01:59:29;;;;;;;4.82;0.77;;;19.60;90.70;;;;;;4994137;28;20029;-90
2022/07/27 02:02:06;;;;;;;0.82;0.50;;;19.50;90.90;;;;;;4995984;28;20018;-89
2022/07/27 02:04:40;;;;;;;1.98;0.63;;;19.50;91.00;;;;;;4997002;28;20025;-90
2022/07/27 02:07:16;;;;;;;1.55;0.63;;;19.50;91.30;;;;;;4996694;28;20116;-90
2022/07/27 02:09:45;;;;;;;2.30;0.70;;;19.40;91.20;;;;;;5009370;28;20128;-89
2022/07/27 02:15:19;;;;;;;1.40;0.68;;;19.50;91.30;;;;;;5010105;28;20114;-87
2022/07/27 02:18:04;;;;;;;1.45;0.70;;;19.40;91.20;;;;;;5007896;28;20490;-89
2022/07/27 02:20:52;;;;;;;2.63;0.70;;;19.40;91.40;;;;;;4994050;28;20026;-90
2022/07/27 02:23:18;;;;;;;1.90;0.65;;;19.40;91.40;;;;;;4993675;28;20552;-89
2022/07/27 02:25:44;;;;;;;2.20;0.68;;;19.40;91.40;;;;;;5011459;28;20065;-89
2022/07/27 02:28:12;;;;;;;3.53;0.90;;;19.40;91.50;;;;;;4997097;28;20037;-90
2022/07/27 02:30:37;;;;;;;1.15;0.60;;;19.40;91.50;;;;;;4996577;28;20391;-89
2022/07/27 02:33:06;;;;;;;1.52;0.77;;;19.40;91.50;;;;;;4996768;28;20037;-89
2022/07/27 02:35:32;;;;;;;1.30;0.63;;;19.30;91.50;;;;;;4995520;28;20030;-90
2022/07/27 02:37:58;;;;;;;2.15;0.80;;;19.40;91.60;;;;;;4997298;28;20029;-89
2022/07/27 02:40:34;;;;;;;1.83;0.70;;;19.20;91.60;;;;;;4993526;28;20085;-90
2022/07/27 02:43:00;;;;;;;2.15;0.70;;;19.20;91.90;;;;;;4996110;28;20041;-89
2022/07/27 02:45:25;;;;;;;1.55;0.55;;;19.10;92.10;;;;;;4996884;28;20117;-90
2022/07/27 02:47:56;;;;;;;1.60;0.60;;;19.10;92.20;;;;;;5010733;28;20065;-90
2022/07/27 02:50:25;;;;;;;2.40;0.73;;;19.10;92.30;;;;;;4985462;28;20046;-89
2022/07/27 02:52:59;;;;;;;1.67;0.68;;;19.10;92.30;;;;;;4993477;28;20092;-89
2022/07/27 02:55:25;;;;;;;1.33;0.73;;;19.10;92.30;;;;;;4994916;28;20091;-89
2022/07/27 02:57:53;;;;;;;0.77;0.45;;;19.10;92.60;;;;;;5014133;28;20026;-89
2022/07/27 03:00:22;;;;;;;1.33;0.57;;;19.20;92.70;;;;;;4995806;28;20402;-90
2022/07/27 03:02:53;;;;;;;1.10;0.60;;;19.20;92.80;;;;;;5027632;28;20040;-89
2022/07/27 03:05:19;;;;;;;2.08;0.70;;;19.20;92.90;;;;;;5007094;28;20026;-89
2022/07/27 03:07:47;;;;;;;1.77;0.70;;;19.20;92.90;;;;;;5018269;28;20025;-90
2022/07/27 03:10:13;;;;;;;1.67;0.70;;;19.20;92.90;;;;;;5010162;28;20025;-90
2022/07/27 03:12:43;;;;;;;1.80;0.95;;;19.20;92.70;;;;;;4993746;28;20032;-89
2022/07/27 03:15:21;;;;;;;1.08;0.60;;;19.10;92.70;;;;;;4992739;28;20113;-90
2022/07/27 03:17:56;;;;;;;1.17;0.70;;;19.10;92.80;;;;;;4994795;28;20041;-89
2022/07/27 03:20:56;;;;;;;1.45;0.60;;;19.10;92.90;;;;;;4994796;28;20030;-90
2022/07/27 03:23:30;;;;;;;1.98;0.80;;;19.10;93.00;;;;;;4990742;28;20036;-90
2022/07/27 03:26:23;;;;;;;1.17;0.50;;;19.00;93.00;;;;;;5014039;28;20045;-89
2022/07/27 03:29:26;;;;;;;1.60;0.70;;;19.10;93.10;;;;;;5006188;28;20239;-90
2022/07/27 03:31:52;;;;;;;1.30;0.70;;;19.10;92.90;;;;;;5013555;28;20026;-89
2022/07/27 03:34:23;;;;;;;1.63;0.70;;;19.10;93.00;;;;;;4993724;28;20431;-90
2022/07/27 03:37:01;;;;;;;1.95;0.70;;;19.00;93.10;;;;;;4992878;28;20038;-89
2022/07/27 03:39:27;;;;;;;1.48;0.57;;;19.10;93.30;;;;;;5008992;28;20044;-89
2022/07/27 03:42:11;;;;;;;1.33;0.60;;;19.00;93.40;;;;;;4996136;28;20165;-90
2022/07/27 03:44:44;;;;;;;1.63;0.70;;;19.00;93.70;;;;;;5006380;28;20486;-89
2022/07/27 03:47:12;;;;;;;1.60;0.70;;;18.90;93.60;;;;;;4996580;28;20063;-89
2022/07/27 03:49:39;;;;;;;1.63;0.70;;;18.90;93.70;;;;;;4986181;28;20061;-89
2022/07/27 03:52:11;;;;;;;2.05;0.70;;;18.90;93.80;;;;;;4995819;28;20030;-89
2022/07/27 03:54:39;;;;;;;1.33;0.85;;;19.00;93.90;;;;;;4996115;28;20475;-89
2022/07/27 03:57:05;;;;;;;1.73;0.80;;;18.80;93.90;;;;;;4994533;28;20057;-89
2022/07/27 03:59:30;;;;;;;2.15;0.93;;;18.80;93.90;;;;;;4993255;28;20022;-90
2022/07/27 04:01:56;;;;;;;1.02;0.50;;;18.80;94.00;;;;;;4989569;28;20037;-89
2022/07/27 04:04:22;;;;;;;3.03;0.90;;;18.80;94.20;;;;;;5008278;28;20045;-89
2022/07/27 04:06:47;;;;;;;2.38;0.95;;;18.80;94.20;;;;;;4990837;28;20044;-90
2022/07/27 04:09:16;;;;;;;1.48;0.77;;;18.80;94.20;;;;;;4989666;28;20060;-89
2022/07/27 04:11:43;;;;;;;4.03;0.80;;;18.80;94.00;;;;;;4985728;28;20105;-89
2022/07/27 04:14:31;;;;;;;2.03;0.60;;;18.80;94.20;;;;;;4999615;28;20448;-89
2022/07/27 04:17:25;;;;;;;2.35;0.68;;;18.70;94.30;;;;;;5002109;28;20042;-90
2022/07/27 04:22:47;;;;;;;3.53;0.90;;;18.60;94.60;;;;;;5104338;22;20057;-88
2022/07/27 04:25:33;;;;;;;1.58;0.63;;;18.50;94.80;;;;;;4999215;28;20031;-89
2022/07/27 04:28:41;;;;;;;3.65;1.35;;;18.50;95.10;;;;;;4999962;28;20125;-89
2022/07/27 04:31:37;;;;;;;1.60;0.80;;;18.40;95.20;;;;;;4875356;29;20060;-89
2022/07/27 04:34:15;;;;;;;1.48;0.60;;;18.60;95.40;;;;;;4860446;29;20044;-89
2022/07/27 04:37:32;;;;;;;;;;;;;;;;;;;;;
2022/07/27 04:40:26;;;;;;;1.45;0.73;;;18.70;95.30;;;;;;5009161;23;20052;-89
2022/07/27 04:43:46;;;;;;;3.50;0.80;;;18.80;95.30;;;;;;5009895;28;20038;-88
2022/07/27 04:46:24;;;;;;;2.22;0.75;;;18.80;95.30;;;;;;4950896;28;20043;-88
2022/07/27 04:49:08;;;;;;;3.55;1.00;;;18.70;95.30;;;;;;5111665;23;20062;-89
2022/07/27 04:51:37;;;;;;;1.48;0.90;;;18.70;95.40;;;;;;4953848;28;20085;-88
2022/07/27 04:58:19;;;;;;;;;;;;;;;;;;;;;
2022/07/27 05:36:59;;;;;;;1.92;1.00;;;18.80;96.70;;;;;;1300923;22;20281;-89
2022/07/27 05:39:25;;;;;;;2.50;1.13;;;18.80;96.80;;;;;;4997894;28;20125;-88
2022/07/27 05:41:57;;;;;;;2.17;1.00;;;18.80;96.90;;;;;;5015018;28;20104;-88
2022/07/27 05:44:23;;;;;;;2.38;1.00;;;18.80;96.90;;;;;;4997468;28;20030;-88
2022/07/27 05:46:59;;;;;;;1.85;0.82;;;19.00;96.90;;;;;;4997892;28;20030;-88
2022/07/27 05:49:34;;;;;;;3.30;1.15;;;19.10;96.90;;;;;;5019444;28;20022;-88
2022/07/27 05:52:03;;;;;;;1.85;0.98;;;19.20;96.40;;;;;;5004750;28;20030;-88
2022/07/27 05:54:46;;;;;;;1.70;0.98;;;19.20;96.30;;;;;;5003859;28;20049;-88
2022/07/27 05:57:14;;;;;;;3.22;1.08;;;19.00;96.50;;;;;;5010853;28;20038;-88
2022/07/27 05:59:41;;;;;;;2.25;1.05;;;19.20;96.50;;;;;;5014473;28;20093;-89
2022/07/27 06:02:07;;;;;;;1.58;0.82;;;19.30;96.60;;;;;;4997235;28;20022;-90
2022/07/27 06:04:34;;;;;;;1.98;1.08;;;19.20;96.40;;;;;;4995479;28;20022;-91
2022/07/27 06:09:44;;;;;;;2.47;1.20;;;19.20;96.40;;;;;;5011613;28;20115;-91
2022/07/27 06:12:36;;;;;;;2.05;1.00;;;19.30;96.40;;;;;;4995311;28;20022;-91
2022/07/27 06:15:13;;;;;;;3.28;1.08;;;19.20;96.50;;;;;;4989890;28;20127;-88
2022/07/27 06:17:51;;;;;;;1.90;1.00;;;19.20;96.60;;;;;;4995295;28;20025;-88
2022/07/27 06:20:17;;;;;;;2.70;1.17;;;19.30;96.80;;;;;;4990314;28;20123;-89
2022/07/27 06:23:01;;;;;;;3.33;1.30;;;19.30;96.60;;;;;;4996319;28;20018;-89
2022/07/27 06:25:31;;;;;;;2.85;1.23;;;19.40;96.60;;;;;;4991205;28;20058;-89
2022/07/27 06:28:09;;;;;;;2.95;1.30;;;19.40;96.50;;;;;;4992326;28;20026;-88
2022/07/27 06:30:37;;;;;;;2.70;1.00;;;19.40;96.50;;;;;;4997842;28;20069;-88
2022/07/27 06:33:03;;;;;;;2.08;1.20;;;19.50;96.60;;;;;;4997090;28;20052;-89
2022/07/27 06:35:35;;;;;;;2.53;1.08;;;19.60;96.40;;;;;;5001004;28;20034;-88
2022/07/27 06:38:04;;;;;;;2.33;1.13;;;19.70;96.30;;;;;;4998134;28;20058;-89
2022/07/27 06:40:31;;;;;;;1.65;1.10;;;19.70;96.00;;;;;;4992355;28;20025;-88
2022/07/27 06:42:57;;;;;;;2.90;1.23;;;19.90;95.90;;;;;;4996993;28;20030;-88
2022/07/27 06:45:23;;;;;;;2.47;1.10;;;19.80;95.90;;;;;;5024701;23;20050;-89
2022/07/27 06:47:50;;;;;;;2.53;1.17;;;19.80;96.00;;;;;;5006457;28;20090;-88
2022/07/27 06:50:17;;;;;;;2.15;1.15;;;19.80;96.00;;;;;;5006916;28;20026;-90
2022/07/27 06:52:45;;;;;;;6.07;1.33;;;19.80;96.20;;;;;;5006884;28;20028;-88
2022/07/27 06:55:49;;;;;;;2.50;1.33;;;19.80;95.90;;;;;;5005460;28;20121;-90
2022/07/27 06:58:24;;;;;;;2.92;1.10;;;19.90;96.30;;;;;;5017574;28;20026;-91
2022/07/27 07:00:53;;;;;;;2.08;1.02;;;20.00;96.00;;;;;;5005427;28;20018;-92
2022/07/27 07:03:18;;;;;;;2.13;1.00;;;20.10;95.70;;;;;;5025472;28;20259;-92
2022/07/27 07:05:47;;;;;;;1.90;1.10;;;20.10;95.80;;;;;;5024913;28;20022;-91
2022/07/27 07:08:16;;;;;;;5.88;1.45;;;20.30;95.60;;;;;;5016999;28;20030;-91
2022/07/27 07:10:44;;;;;;;1.98;0.90;;;20.50;95.40;;;;;;5006555;28;20022;-91
2022/07/27 07:13:16;;;;;;;2.10;1.08;;;20.40;95.20;;;;;;5012850;28;20025;-90
2022/07/27 07:15:55;;;;;;;1.88;0.93;;;20.40;95.20;;;;;;4993859;28;20065;-90
2022/07/27 07:18:30;;;;;;;2.80;1.30;;;20.40;95.30;;;;;;5005782;28;20026;-90
2022/07/27 07:20:56;;;;;;;2.63;1.42;;;20.50;95.10;;;;;;5004993;28;20434;-90
2022/07/27 07:23:24;;;;;;;2.15;1.13;;;20.40;95.20;;;;;;5007158;28;20026;-91
2022/07/27 07:25:52;;;;;;;2.08;1.15;;;20.50;95.20;;;;;;5006235;28;20030;-91
2022/07/27 07:28:21;;;;;;;2.00;1.05;;;20.70;95.20;;;;;;5017150;28;20045;-90
2022/07/27 07:30:50;;;;;;;2.45;1.10;;;20.80;95.00;;;;;;5000142;28;20026;-90
2022/07/27 07:33:15;;;;;;;2.30;1.10;;;20.90;94.80;;;;;;4987393;28;20075;-90
2022/07/27 07:35:44;;;;;;;1.60;1.02;;;21.10;94.50;;;;;;5000603;28;20113;-90
2022/07/27 07:38:12;;;;;;;2.10;1.30;;;21.10;94.40;;;;;;5007754;28;20073;-90
2022/07/27 07:40:38;;;;;;;4.47;2.03;;;21.30;94.40;;;;;;5007770;28;20014;-92
2022/07/27 07:43:16;;;;;;;3.10;1.27;;;21.40;94.20;;;;;;5006218;28;20117;-91
2022/07/27 07:45:50;;;;;;;3.65;1.52;;;21.50;93.70;;;;;;5006875;28;20121;-91
2022/07/27 07:48:22;;;;;;;2.13;1.08;;;21.60;93.70;;;;;;5009722;28;20131;-90
2022/07/27 07:51:01;;;;;;;2.45;1.15;;;21.50;93.80;;;;;;4992355;28;20037;-91
2022/07/27 07:53:26;;;;;;;2.13;1.38;;;21.50;93.90;;;;;;5002896;28;20113;-91
2022/07/27 07:56:15;;;;;;;3.20;1.00;;;21.60;93.50;;;;;;4995208;28;20049;-91
2022/07/27 07:58:47;;;;;;;1.85;1.15;;;21.70;93.50;;;;;;5014713;28;20042;-91
2022/07/27 08:01:24;;;;;;;5.75;1.05;;;21.70;93.50;;;;;;5003094;28;20026;-91
2022/07/27 08:03:51;;;;;;;2.58;1.02;;;21.60;93.40;;;;;;4998466;28;20026;-91
2022/07/27 08:06:17;;;;;;;2.15;0.90;;;21.70;93.50;;;;;;4997353;28;20108;-91
2022/07/27 08:08:54;;;;;;;2.03;1.08;;;21.80;93.00;;;;;;5002243;28;20029;-91
2022/07/27 08:11:25;;;;;;;4.00;1.30;;;21.80;92.90;;;;;;5008833;28;20040;-91
2022/07/27 08:13:58;;;;;;;;;;;21.80;93.00;;;;;;5017516;28;20029;-91
2022/07/27 08:16:56;;;;;;;1.40;0.82;;;21.90;92.90;;;;;;5017989;28;19933;-91
2022/07/27 08:19:25;;;;;;;2.08;0.80;;;21.90;92.90;;;;;;4999397;28;20109;-90
2022/07/27 08:22:00;;;;;;;3.00;1.05;;;22.00;92.90;;;;;;5008841;28;20018;-91
2022/07/27 08:24:26;;;;;;;1.98;1.00;;;21.90;93.10;;;;;;5010581;28;20090;-90
2022/07/27 08:26:51;;;;;;;3.03;1.00;;;21.90;92.90;;;;;;5005826;28;20081;-90
2022/07/27 08:29:17;;;;;;;2.85;1.00;;;22.00;93.30;;;;;;5007224;28;20371;-91
2022/07/27 08:31:43;;;;;;;1.85;0.90;;;22.20;93.10;;;;;;5024878;28;20026;-92
2022/07/27 08:34:09;;;;;;;1.67;0.90;;;22.10;92.40;;;;;;5008039;28;20030;-90
2022/07/27 08:36:41;;;;;;;3.65;1.73;;;22.20;92.40;;;;;;5009102;28;20278;-91
2022/07/27 08:39:12;;;;;;;2.05;0.88;;;22.20;92.40;;;;;;5016401;28;20033;-90
2022/07/27 08:41:59;;;;;;;2.22;1.05;;;22.20;92.60;;;;;;5009613;28;20100;-91
2022/07/27 08:44:28;;;;;;;2.58;1.10;;;22.40;92.30;;;;;;5008015;28;20041;-91
2022/07/27 08:47:04;;;;;;;2.05;1.20;;;22.60;92.30;;;;;;5007638;28;20036;-90
2022/07/27 08:49:33;;;;;;;2.28;0.95;;;22.50;91.80;;;;;;5007605;28;20025;-91
2022/07/27 08:52:03;;;;;;;2.25;1.05;;;22.80;91.90;;;;;;5006872;28;20030;-91
2022/07/27 08:54:46;;;;;;;2.67;0.90;;;22.90;91.60;;;;;;5019372;28;20471;-91
2022/07/27 08:57:17;;;;;;;2.22;0.70;;;23.00;91.80;;;;;;5003353;28;20132;-91
2022/07/27 08:59:55;;;;;;;2.78;0.90;;;23.20;91.40;;;;;;4997349;28;20021;-91
2022/07/27 09:02:36;;;;;;;2.05;1.00;;;23.40;91.00;;;;;;5004120;28;20121;-90
2022/07/27 09:05:04;;;;;;;3.70;1.00;;;23.50;90.50;;;;;;4994022;28;20470;-91
2022/07/27 09:07:35;;;;;;;2.40;1.05;;;23.70;90.80;;;;;;5004612;28;20042;-90
2022/07/27 09:10:04;;;;;;;;;;;23.60;90.50;;;;;;5009171;28;20026;-90
2022/07/27 09:13:06;;;;;;;1.65;0.80;;;23.60;90.50;;;;;;5004403;28;19910;-91
2022/07/27 09:16:02;;;;;;;2.75;1.23;;;23.80;90.50;;;;;;4976451;28;20069;-93
2022/07/27 09:18:43;;;;;;;2.03;1.10;;;23.30;90.10;;;;;;4989782;28;20081;-91
2022/07/27 09:21:17;;;;;;;2.63;1.10;;;23.30;90.10;;;;;;4998145;28;20052;-91
2022/07/27 09:24:15;;;;;;;2.03;1.13;;;23.30;90.30;;;;;;5012296;28;20022;-91
2022/07/27 09:26:50;;;;;;;4.60;1.60;;;23.30;90.40;;;;;;4965239;28;20060;-91
2022/07/27 09:29:16;;;;;;;2.67;1.20;;;23.40;90.40;;;;;;5012549;28;20094;-92
2022/07/27 09:31:51;;;;;;;2.22;1.10;;;23.50;90.20;;;;;;5014130;28;20060;-91
2022/07/27 09:34:36;;;;;;;2.15;1.00;;;23.90;90.00;;;;;;5011952;28;20034;-91
2022/07/27 09:37:06;;;;;;;2.00;1.02;;;24.00;89.90;;;;;;5003816;28;20026;-92
2022/07/27 09:40:39;;;;;;;2.72;1.30;;;24.10;88.70;;;;;;5010068;28;20022;-91
2022/07/27 09:43:12;;;;;;;1.83;0.90;;;24.40;89.00;;;;;;4953680;28;20022;-91
2022/07/27 09:45:58;;;;;;;1.92;1.00;;;24.60;87.70;;;;;;4956947;29;20038;-91
2022/07/27 09:48:27;;;;;;;2.83;1.00;;;25.00;86.90;;;;;;4978890;28;20030;-91
2022/07/27 09:51:04;;;;;;;2.65;1.42;;;25.50;86.70;;;;;;5008988;28;20056;-91
2022/07/27 09:54:07;;;;;;;2.10;0.90;;;25.30;85.70;;;;;;5007112;28;20030;-91
2022/07/27 09:56:41;;;;;;;2.53;1.15;;;25.40;86.40;;;;;;5004810;28;20106;-91
2022/07/27 09:59:19;;;;;;;2.40;1.10;;;25.40;86.30;;;;;;5008583;28;20483;-90
2022/07/27 10:01:48;;;;;;;1.65;0.80;;;25.50;86.20;;;;;;4999225;28;20029;-91
2022/07/27 10:04:19;;;;;;;1.65;1.00;;;25.50;86.20;;;;;;4998992;28;20029;-91
2022/07/27 10:06:46;;;;;;;2.42;0.93;;;25.30;85.70;;;;;;5003229;28;20029;-91
2022/07/27 10:09:11;;;;;;;1.88;1.15;;;24.90;85.40;;;;;;4998110;28;20044;-91
2022/07/27 10:11:43;;;;;;;2.90;1.40;;;25.10;85.80;;;;;;5000341;28;20026;-91
2022/07/27 10:14:11;;;;;;;2.25;0.80;;;25.10;86.10;;;;;;5006702;28;20034;-91
2022/07/27 10:16:56;;;;;;;1.65;0.80;;;24.90;85.80;;;;;;5004123;28;20485;-91
2022/07/27 10:19:38;;;;;;;2.97;1.10;;;25.10;86.20;;;;;;5024362;28;20029;-91
2022/07/27 10:22:10;;;;;;;1.67;0.90;;;25.30;86.30;;;;;;5006045;28;20029;-91
2022/07/27 10:24:39;;;;;;;2.17;1.10;;;24.90;85.40;;;;;;5016293;28;20028;-91
2022/07/27 10:27:29;;;;;;;2.00;0.85;;;25.20;85.30;;;;;;5009384;28;20030;-90
2022/07/27 10:30:21;;;;;;;2.63;0.82;;;25.30;85.00;;;;;;5010913;28;20085;-92
2022/07/27 10:32:56;;;;;;;2.75;0.90;;;25.30;84.10;;;;;;5026590;28;20022;-92
2022/07/27 10:35:38;;;;;;;1.83;0.98;;;25.30;84.80;;;;;;5015664;28;20029;-91
2022/07/27 10:38:25;;;;;;;;;;;;;;;;;;;;;
2022/07/27 10:41:42;;;;;;;2.25;0.90;;;25.10;85.60;;;;;;5025911;28;20093;-92
2022/07/27 10:44:17;;;;;;;3.30;0.95;;;25.50;85.20;;;;;;4995585;28;20450;-92
2022/07/27 10:46:54;;;;;;;1.77;0.90;;;25.90;82.90;;;;;;4996357;28;20113;-91
2022/07/27 10:49:52;;;;;;;2.38;1.30;;;26.00;83.80;;;;;;5001442;28;20033;-92
2022/07/27 10:52:49;;;;;;;1.63;0.90;;;25.60;83.50;;;;;;5007577;28;20030;-91
2022/07/27 16:19:28;;;;;;;1.17;0.40;;;26.60;67.50;;;;;;5121019;22;20101;-90
2022/07/27 16:22:41;;;;;;;0.60;0.30;;;26.60;67.80;;;;;;4968701;28;20039;-90
2022/07/27 16:26:12;;;;;;;;;;;;;;;;;;;;;
2022/07/27 16:29:08;;;;;;;1.27;0.68;;;26.80;68.00;;;;;;4954093;28;20042;-90
2022/07/27 16:31:56;;;;;;;;;;;;;;;;;;;;;
2022/07/27 16:35:15;;;;;;;0.40;0.20;;;26.80;67.90;;;;;;4969150;28;20033;-89
2022/07/27 16:38:46;;;;;;;;;;;;;;;;;;;;;
2022/07/27 16:41:48;;;;;;;0.70;0.30;;;26.50;68.10;;;;;;4968350;28;20041;-89
2022/07/27 16:45:01;;;;;;;0.45;0.20;;;26.30;67.70;;;;;;4972488;28;20092;-90
2022/07/27 16:47:38;;;;;;;0.68;0.30;;;26.10;69.10;;;;;;4963407;28;20058;-90
2022/07/27 19:48:40;;;;;;;1.45;0.30;;;22.90;75.10;;;;;;2530539;23;20306;-90
2022/07/27 19:51:09;;;;;;;1.02;0.40;;;22.70;75.20;;;;;;4966267;28;20047;-89
2022/07/27 19:53:37;;;;;;;2.35;0.68;;;22.70;75.40;;;;;;4950385;29;20036;-89
2022/07/27 19:56:10;;;;;;;0.98;0.30;;;22.60;75.60;;;;;;4964224;28;20031;-89
2022/07/27 20:01:14;;;;;;;1.63;0.40;;;22.60;75.90;;;;;;3142419;26;19921;-90
2022/07/27 20:03:41;;;;;;;0.70;0.30;;;22.50;76.00;;;;;;5024082;28;20017;-90
2022/07/27 20:06:10;;;;;;;2.03;0.32;;;22.40;76.30;;;;;;4999055;28;20522;-89
2022/07/27 20:08:36;;;;;;;0.45;0.20;;;22.40;76.40;;;;;;5006713;28;20031;-88
2022/07/27 20:11:10;;;;;;;1.17;0.32;;;22.30;76.60;;;;;;4985565;28;20061;-89
2022/07/27 20:13:36;;;;;;;0.80;0.30;;;22.30;76.80;;;;;;4979103;28;20065;-90
2022/07/27 20:16:04;;;;;;;1.65;0.45;;;22.30;77.00;;;;;;4994869;28;20035;-89
2022/07/27 20:18:30;;;;;;;1.85;0.70;;;22.20;77.10;;;;;;4993539;28;20030;-89
2022/07/27 20:20:57;;;;;;;1.13;0.32;;;22.20;77.40;;;;;;4982687;28;20025;-90
2022/07/27 20:23:38;;;;;;;1.42;0.40;;;22.10;77.20;;;;;;4973519;28;20471;-89
2022/07/27 20:26:14;;;;;;;2.28;0.25;;;22.10;77.30;;;;;;4975298;28;20047;-88
2022/07/27 20:28:53;;;;;;;1.63;0.40;;;22.00;77.40;;;;;;4990086;28;20514;-89
2022/07/27 20:31:20;;;;;;;0.98;0.35;;;22.00;77.50;;;;;;4977067;28;20029;-90
2022/07/27 20:33:47;;;;;;;1.42;0.60;;;21.90;77.70;;;;;;4970952;28;20061;-89
2022/07/27 20:36:22;;;;;;;1.40;0.50;;;21.90;77.70;;;;;;4996829;28;20042;-89
2022/07/27 20:38:58;;;;;;;1.55;0.60;;;21.90;77.80;;;;;;4980707;28;20492;-90
2022/07/27 20:41:26;;;;;;;0.90;0.40;;;21.90;77.90;;;;;;4983924;28;20023;-90
2022/07/27 20:43:53;;;;;;;2.38;0.50;;;21.90;77.90;;;;;;4987473;28;20031;-90
2022/07/27 20:46:39;;;;;;;1.92;0.60;;;21.90;78.10;;;;;;4973196;28;20029;-89
2022/07/27 20:49:06;;;;;;;1.40;0.50;;;21.80;78.50;;;;;;4978973;28;20491;-89
2022/07/27 20:51:38;;;;;;;1.15;0.25;;;21.80;78.30;;;;;;4977402;28;20119;-90
2022/07/27 20:54:15;;;;;;;1.10;0.40;;;21.80;78.40;;;;;;4969277;28;20094;-90
2022/07/27 20:56:50;;;;;;;1.08;0.40;;;21.90;78.50;;;;;;4984677;28;20098;-90
2022/07/27 20:59:23;;;;;;;1.25;0.40;;;21.80;78.40;;;;;;4981687;28;20026;-90
2022/07/27 21:01:52;;;;;;;1.83;0.30;;;21.80;78.40;;;;;;4982623;28;20699;-89
2022/07/27 21:04:22;;;;;;;0.70;0.30;;;21.80;78.40;;;;;;4982947;28;20037;-89
2022/07/27 21:06:58;;;;;;;0.93;0.30;;;21.80;78.50;;;;;;5001465;28;20021;-90
2022/07/27 21:15:36;;;;;;;1.55;0.30;;;21.60;79.30;;;;;;4973777;28;20041;-89
2022/07/27 21:18:37;;;;;;;0.68;0.30;;;21.60;79.30;;;;;;4999476;28;20556;-90
2022/07/27 21:21:28;;;;;;;0.73;0.30;;;21.70;79.30;;;;;;4997395;28;20219;-90
2022/07/27 21:38:03;;;;;;;0.73;0.20;;;21.40;80.20;;;;;;1262286;22;20327;-89
2022/07/27 21:40:50;;;;;;;1.30;0.40;;;21.30;80.00;;;;;;4980772;28;20082;-89
2022/07/27 21:43:29;;;;;;;0.65;0.28;;;21.20;80.30;;;;;;5004237;28;20015;-90
2022/07/27 21:46:05;;;;;;;1.90;0.30;;;21.10;80.70;;;;;;5006446;28;20380;-90
2022/07/27 22:07:35;;;;;;;0.85;0.30;;;20.80;81.50;;;;;;5014115;28;20057;-89
2022/07/27 22:10:28;;;;;;;0.73;0.32;;;20.90;80.80;;;;;;4990481;28;20086;-90
2022/07/27 22:13:14;;;;;;;1.92;0.40;;;20.80;81.00;;;;;;4999099;28;20110;-89
2022/07/27 22:15:57;;;;;;;0.47;0.20;;;20.80;81.10;;;;;;4985739;28;20455;-89
2022/07/27 22:19:00;;;;;;;0.85;0.32;;;20.70;81.00;;;;;;4987795;28;20069;-89
2022/07/27 22:21:29;;;;;;;1.85;0.22;;;20.60;80.80;;;;;;5007955;28;20022;-88
2022/07/27 22:24:17;;;;;;;0.93;0.35;;;20.60;81.00;;;;;;4988759;28;20029;-89
2022/07/27 22:26:47;;;;;;;1.10;0.38;;;20.60;81.20;;;;;;4988533;28;20097;-88
2022/07/27 22:29:14;;;;;;;1.10;0.47;;;20.60;81.60;;;;;;5011895;28;20030;-87
2022/07/27 22:31:43;;;;;;;0.68;0.30;;;20.60;81.70;;;;;;4984850;28;20026;-89
2022/07/27 22:34:31;;;;;;;0.90;0.40;;;20.50;81.60;;;;;;4995033;28;20022;-91
2022/07/27 22:37:08;;;;;;;1.25;0.40;;;20.60;81.60;;;;;;5008531;28;20022;-90
2022/07/27 22:39:43;;;;;;;0.77;0.20;;;20.50;81.70;;;;;;4984595;28;20475;-88
2022/07/27 22:42:18;;;;;;;0.75;0.30;;;20.50;81.80;;;;;;4988241;28;20018;-89
2022/07/27 22:44:54;;;;;;;1.73;0.28;;;20.50;82.00;;;;;;5001024;28;20034;-90
2022/07/27 22:47:27;;;;;;;1.33;0.30;;;20.40;81.90;;;;;;5008906;28;20022;-88
2022/07/27 22:50:11;;;;;;;1.98;0.40;;;20.50;81.80;;;;;;4992992;28;20505;-89
2022/07/27 22:52:45;;;;;;;1.70;0.32;;;20.40;81.80;;;;;;4982769;28;20168;-90
2022/07/27 22:55:33;;;;;;;1.58;0.50;;;20.50;82.00;;;;;;4987829;28;20034;-89
2022/07/27 22:58:07;;;;;;;0.70;0.30;;;20.50;81.90;;;;;;4998413;28;20124;-90
2022/07/27 23:00:38;;;;;;;3.15;0.32;;;20.50;82.20;;;;;;4988514;28;20029;-89
2022/07/27 23:03:19;;;;;;;;;;;20.50;81.40;;;;;;4994909;28;20034;-89
2022/07/27 23:05:45;;;;;;;0.60;0.30;;;20.50;81.30;;;;;;4986828;28;19972;-89
2022/07/27 23:11:12;;;;;;;0.70;0.30;;;20.50;81.80;;;;;;4972420;28;20026;-89
2022/07/27 23:13:49;;;;;;;1.75;0.38;;;20.40;81.50;;;;;;4984466;28;20022;-90
2022/07/27 23:16:15;;;;;;;0.75;0.32;;;20.50;81.40;;;;;;4980390;28;20057;-91
2022/07/27 23:18:47;;;;;;;1.65;0.40;;;20.50;81.60;;;;;;4971042;28;20030;-89
2022/07/27 23:24:45;;;;;;;0.95;0.40;;;20.50;81.50;;;;;;4990982;28;20041;-87
2022/07/27 23:33:46;;;;;;;1.52;0.40;;;20.40;81.60;;;;;;4951236;28;20032;-88
2022/07/27 23:36:12;;;;;;;0.80;0.30;;;20.40;81.70;;;;;;4935173;28;20040;-85
2022/07/27 23:38:39;;;;;;;1.77;0.40;;;20.40;81.60;;;;;;4960393;28;20034;-84
2022/07/27 23:41:05;;;;;;;1.48;0.30;;;20.40;81.60;;;;;;4959442;28;20444;-85
2022/07/27 23:43:33;;;;;;;0.52;0.30;;;20.40;82.30;;;;;;4941567;29;20024;-83
2022/07/27 23:45:59;;;;;;;0.70;0.30;;;20.30;81.80;;;;;;4961185;28;20107;-82
2022/07/27 23:48:25;;;;;;;0.88;0.45;;;20.30;81.60;;;;;;4953433;28;20519;-82